sensor_id;sensor_type;location;lat;lon;timestamp;temperature;humidity
39655;DHT22;25336;59.944;11.010;2023-07-31T00:01:53;18.40;66.40
39655;DHT22;25336;59.944;11.010;2023-07-31T00:04:19;18.50;66.50
39655;DHT22;25336;59.944;11.010;2023-07-31T00:06:45;18.50;66.40
39655;DHT22;25336;59.944;11.010;2023-07-31T00:09:10;18.50;66.50
39655;DHT22;25336;59.944;11.010;2023-07-31T00:11:36;18.50;66.60
39655;DHT22;25336;59.944;11.010;2023-07-31T00:14:01;18.50;66.50
39655;DHT22;25336;59.944;11.010;2023-07-31T00:16:27;18.50;66.50
39655;DHT22;25336;59.944;11.010;2023-07-31T00:18:53;18.50;66.50
39655;DHT22;25336;59.944;11.010;2023-07-31T00:21:18;18.50;66.50
39655;DHT22;25336;59.944;11.010;2023-07-31T00:23:44;18.60;66.60
39655;DHT22;25336;59.944;11.010;2023-07-31T00:26:10;18.60;66.50
39655;DHT22;25336;59.944;11.010;2023-07-31T00:28:35;18.60;66.50
39655;DHT22;25336;59.944;11.010;2023-07-31T00:31:01;18.60;66.40
39655;DHT22;25336;59.944;11.010;2023-07-31T00:33:31;18.60;67.20
39655;DHT22;25336;59.944;11.010;2023-07-31T00:35:57;18.60;66.30
39655;DHT22;25336;59.944;11.010;2023-07-31T00:38:22;18.60;66.20
39655;DHT22;25336;59.944;11.010;2023-07-31T00:40:48;18.60;66.20
39655;DHT22;25336;59.944;11.010;2023-07-31T00:43:13;18.60;66.20
39655;DHT22;25336;59.944;11.010;2023-07-31T00:45:39;18.60;66.20
39655;DHT22;25336;59.944;11.010;2023-07-31T00:48:05;18.60;66.10
39655;DHT22;25336;59.944;11.010;2023-07-31T00:50:31;18.60;66.10
39655;DHT22;25336;59.944;11.010;2023-07-31T00:52:58;18.60;66.00
39655;DHT22;25336;59.944;11.010;2023-07-31T00:55:24;18.60;66.00
39655;DHT22;25336;59.944;11.010;2023-07-31T00:57:50;18.70;66.00
39655;DHT22;25336;59.944;11.010;2023-07-31T01:00:18;18.50;66.00
39655;DHT22;25336;59.944;11.010;2023-07-31T01:02:44;18.50;65.90
39655;DHT22;25336;59.944;11.010;2023-07-31T01:05:10;18.30;65.70
39655;DHT22;25336;59.944;11.010;2023-07-31T01:10:20;18.50;66.10
39655;DHT22;25336;59.944;11.010;2023-07-31T01:12:46;18.50;66.00
39655;DHT22;25336;59.944;11.010;2023-07-31T01:15:13;18.40;65.90
39655;DHT22;25336;59.944;11.010;2023-07-31T01:17:43;18.40;65.90
39655;DHT22;25336;59.944;11.010;2023-07-31T01:20:17;18.40;66.00
39655;DHT22;25336;59.944;11.010;2023-07-31T01:23:23;18.40;66.30
39655;DHT22;25336;59.944;11.010;2023-07-31T01:26:21;18.40;66.70
39655;DHT22;25336;59.944;11.010;2023-07-31T01:29:23;18.40;66.60
39655;DHT22;25336;59.944;11.010;2023-07-31T01:31:53;18.40;66.60
39655;DHT22;25336;59.944;11.010;2023-07-31T01:34:21;18.30;66.00
39655;DHT22;25336;59.944;11.010;2023-07-31T01:36:47;18.30;66.00
39655;DHT22;25336;59.944;11.010;2023-07-31T01:39:13;18.30;66.00
39655;DHT22;25336;59.944;11.010;2023-07-31T01:41:40;18.20;66.10
39655;DHT22;25336;59.944;11.010;2023-07-31T01:44:06;18.20;66.10
39655;DHT22;25336;59.944;11.010;2023-07-31T01:46:32;18.20;66.10
39655;DHT22;25336;59.944;11.010;2023-07-31T01:48:58;18.20;66.10
39655;DHT22;25336;59.944;11.010;2023-07-31T01:51:23;18.60;66.40
39655;DHT22;25336;59.944;11.010;2023-07-31T01:53:49;18.20;66.30
39655;DHT22;25336;59.944;11.010;2023-07-31T01:56:14;18.10;66.30
39655;DHT22;25336;59.944;11.010;2023-07-31T01:58:40;18.10;66.30
39655;DHT22;25336;59.944;11.010;2023-07-31T02:01:06;18.10;66.30
39655;DHT22;25336;59.944;11.010;2023-07-31T02:03:31;18.10;66.30
39655;DHT22;25336;59.944;11.010;2023-07-31T02:05:57;18.00;66.20
39655;DHT22;25336;59.944;11.010;2023-07-31T02:08:22;18.00;66.20
39655;DHT22;25336;59.944;11.010;2023-07-31T02:10:48;18.00;66.20
39655;DHT22;25336;59.944;11.010;2023-07-31T02:13:14;18.00;66.20
39655;DHT22;25336;59.944;11.010;2023-07-31T02:15:39;18.00;66.20
39655;DHT22;25336;59.944;11.010;2023-07-31T02:18:06;17.90;66.10
39655;DHT22;25336;59.944;11.010;2023-07-31T02:20:35;17.80;66.10
39655;DHT22;25336;59.944;11.010;2023-07-31T02:23:01;17.80;66.30
39655;DHT22;25336;59.944;11.010;2023-07-31T02:25:26;17.80;66.20
39655;DHT22;25336;59.944;11.010;2023-07-31T02:27:52;17.80;66.20
39655;DHT22;25336;59.944;11.010;2023-07-31T02:30:18;17.70;66.20
39655;DHT22;25336;59.944;11.010;2023-07-31T02:32:43;17.70;66.20
39655;DHT22;25336;59.944;11.010;2023-07-31T02:35:09;17.70;66.40
39655;DHT22;25336;59.944;11.010;2023-07-31T02:37:36;17.60;66.50
39655;DHT22;25336;59.944;11.010;2023-07-31T02:40:02;17.60;66.60
39655;DHT22;25336;59.944;11.010;2023-07-31T02:42:27;17.60;66.70
39655;DHT22;25336;59.944;11.010;2023-07-31T02:44:53;17.60;66.80
39655;DHT22;25336;59.944;11.010;2023-07-31T02:47:22;17.60;66.90
39655;DHT22;25336;59.944;11.010;2023-07-31T02:49:48;17.60;67.00
39655;DHT22;25336;59.944;11.010;2023-07-31T02:52:13;17.60;67.10
39655;DHT22;25336;59.944;11.010;2023-07-31T02:54:39;17.60;67.10
39655;DHT22;25336;59.944;11.010;2023-07-31T02:57:05;17.60;67.10
39655;DHT22;25336;59.944;11.010;2023-07-31T02:59:30;17.50;67.10
39655;DHT22;25336;59.944;11.010;2023-07-31T03:01:56;17.60;67.20
39655;DHT22;25336;59.944;11.010;2023-07-31T03:04:21;17.50;68.00
39655;DHT22;25336;59.944;11.010;2023-07-31T03:06:47;17.50;67.30
39655;DHT22;25336;59.944;11.010;2023-07-31T03:09:13;17.60;67.50
39655;DHT22;25336;59.944;11.010;2023-07-31T03:11:38;17.60;67.60
39655;DHT22;25336;59.944;11.010;2023-07-31T03:14:04;17.50;67.50
39655;DHT22;25336;59.944;11.010;2023-07-31T03:16:30;17.60;67.80
39655;DHT22;25336;59.944;11.010;2023-07-31T03:18:55;17.60;67.80
39655;DHT22;25336;59.944;11.010;2023-07-31T03:21:21;17.60;67.80
39655;DHT22;25336;59.944;11.010;2023-07-31T03:23:46;17.60;67.60
39655;DHT22;25336;59.944;11.010;2023-07-31T03:26:12;17.60;67.60
39655;DHT22;25336;59.944;11.010;2023-07-31T03:28:37;17.60;67.60
39655;DHT22;25336;59.944;11.010;2023-07-31T03:31:03;17.60;67.60
39655;DHT22;25336;59.944;11.010;2023-07-31T03:33:29;17.60;67.60
39655;DHT22;25336;59.944;11.010;2023-07-31T03:35:55;17.60;67.60
39655;DHT22;25336;59.944;11.010;2023-07-31T03:38:20;17.60;67.70
39655;DHT22;25336;59.944;11.010;2023-07-31T03:40:46;17.60;67.90
39655;DHT22;25336;59.944;11.010;2023-07-31T03:43:12;17.70;68.00
39655;DHT22;25336;59.944;11.010;2023-07-31T03:45:38;17.70;68.00
39655;DHT22;25336;59.944;11.010;2023-07-31T03:48:04;17.70;68.00
39655;DHT22;25336;59.944;11.010;2023-07-31T03:50:29;17.70;68.10
39655;DHT22;25336;59.944;11.010;2023-07-31T03:52:56;17.70;68.10
39655;DHT22;25336;59.944;11.010;2023-07-31T03:55:22;17.70;68.30
39655;DHT22;25336;59.944;11.010;2023-07-31T03:57:48;17.80;68.40
39655;DHT22;25336;59.944;11.010;2023-07-31T04:00:13;17.80;68.50
39655;DHT22;25336;59.944;11.010;2023-07-31T04:02:39;17.80;68.50
39655;DHT22;25336;59.944;11.010;2023-07-31T04:05:05;17.80;68.40
39655;DHT22;25336;59.944;11.010;2023-07-31T04:07:31;17.90;68.60
39655;DHT22;25336;59.944;11.010;2023-07-31T04:09:57;17.90;68.60
39655;DHT22;25336;59.944;11.010;2023-07-31T04:12:23;17.90;68.60
39655;DHT22;25336;59.944;11.010;2023-07-31T04:14:49;17.90;68.60
39655;DHT22;25336;59.944;11.010;2023-07-31T04:17:17;18.00;68.80
39655;DHT22;25336;59.944;11.010;2023-07-31T04:19:42;18.00;68.70
39655;DHT22;25336;59.944;11.010;2023-07-31T04:22:08;18.10;68.80
39655;DHT22;25336;59.944;11.010;2023-07-31T04:24:34;18.10;68.80
39655;DHT22;25336;59.944;11.010;2023-07-31T04:26:59;18.10;68.70
39655;DHT22;25336;59.944;11.010;2023-07-31T04:29:25;18.20;68.80
39655;DHT22;25336;59.944;11.010;2023-07-31T04:31:50;18.60;69.00
39655;DHT22;25336;59.944;11.010;2023-07-31T04:34:16;18.20;68.80
39655;DHT22;25336;59.944;11.010;2023-07-31T04:36:42;18.30;68.90
39655;DHT22;25336;59.944;11.010;2023-07-31T04:39:07;18.30;68.60
39655;DHT22;25336;59.944;11.010;2023-07-31T04:41:33;18.30;68.50
39655;DHT22;25336;59.944;11.010;2023-07-31T04:43:58;18.30;68.30
39655;DHT22;25336;59.944;11.010;2023-07-31T04:46:24;18.40;68.30
39655;DHT22;25336;59.944;11.010;2023-07-31T04:48:50;18.40;68.10
39655;DHT22;25336;59.944;11.010;2023-07-31T04:51:15;18.40;68.00
39655;DHT22;25336;59.944;11.010;2023-07-31T04:53:41;18.40;67.90
39655;DHT22;25336;59.944;11.010;2023-07-31T04:56:07;18.50;67.90
39655;DHT22;25336;59.944;11.010;2023-07-31T04:58:32;18.50;67.80
39655;DHT22;25336;59.944;11.010;2023-07-31T05:00:58;18.50;67.70
39655;DHT22;25336;59.944;11.010;2023-07-31T05:03:24;18.90;67.80
39655;DHT22;25336;59.944;11.010;2023-07-31T05:05:50;18.50;67.50
39655;DHT22;25336;59.944;11.010;2023-07-31T05:08:16;18.60;67.60
39655;DHT22;25336;59.944;11.010;2023-07-31T05:10:43;18.60;67.60
39655;DHT22;25336;59.944;11.010;2023-07-31T05:13:08;18.60;67.50
39655;DHT22;25336;59.944;11.010;2023-07-31T05:15:34;19.30;67.90
39655;DHT22;25336;59.944;11.010;2023-07-31T05:18:00;18.60;67.40
39655;DHT22;25336;59.944;11.010;2023-07-31T05:20:25;18.70;67.40
39655;DHT22;25336;59.944;11.010;2023-07-31T05:22:52;18.70;67.30
39655;DHT22;25336;59.944;11.010;2023-07-31T05:25:21;18.80;67.20
39655;DHT22;25336;59.944;11.010;2023-07-31T05:27:47;18.80;66.90
39655;DHT22;25336;59.944;11.010;2023-07-31T05:30:12;18.90;66.60
39655;DHT22;25336;59.944;11.010;2023-07-31T05:32:38;18.90;66.20
39655;DHT22;25336;59.944;11.010;2023-07-31T05:35:04;18.90;65.90
39655;DHT22;25336;59.944;11.010;2023-07-31T05:37:30;18.90;65.60
39655;DHT22;25336;59.944;11.010;2023-07-31T05:39:55;18.90;65.50
39655;DHT22;25336;59.944;11.010;2023-07-31T05:42:21;18.90;65.50
39655;DHT22;25336;59.944;11.010;2023-07-31T05:44:46;18.90;65.70
39655;DHT22;25336;59.944;11.010;2023-07-31T05:47:12;19.00;65.70
39655;DHT22;25336;59.944;11.010;2023-07-31T05:49:38;19.00;65.80
39655;DHT22;25336;59.944;11.010;2023-07-31T05:52:04;19.10;65.70
39655;DHT22;25336;59.944;11.010;2023-07-31T05:54:29;19.20;65.60
39655;DHT22;25336;59.944;11.010;2023-07-31T05:56:55;19.20;65.50
39655;DHT22;25336;59.944;11.010;2023-07-31T05:59:21;19.30;65.30
39655;DHT22;25336;59.944;11.010;2023-07-31T06:01:46;19.30;65.00
39655;DHT22;25336;59.944;11.010;2023-07-31T06:04:12;19.40;64.80
39655;DHT22;25336;59.944;11.010;2023-07-31T06:06:38;19.40;64.60
39655;DHT22;25336;59.944;11.010;2023-07-31T06:09:03;19.40;64.50
39655;DHT22;25336;59.944;11.010;2023-07-31T06:11:29;19.50;64.40
39655;DHT22;25336;59.944;11.010;2023-07-31T06:13:55;19.50;64.40
39655;DHT22;25336;59.944;11.010;2023-07-31T06:16:20;19.60;64.40
39655;DHT22;25336;59.944;11.010;2023-07-31T06:18:47;19.60;64.10
39655;DHT22;25336;59.944;11.010;2023-07-31T06:21:12;19.70;63.90
39655;DHT22;25336;59.944;11.010;2023-07-31T06:23:38;19.70;63.80
39655;DHT22;25336;59.944;11.010;2023-07-31T06:26:04;19.80;64.00
39655;DHT22;25336;59.944;11.010;2023-07-31T06:28:30;19.80;64.00
39655;DHT22;25336;59.944;11.010;2023-07-31T06:30:58;19.90;63.80
39655;DHT22;25336;59.944;11.010;2023-07-31T06:33:24;19.90;63.40
39655;DHT22;25336;59.944;11.010;2023-07-31T06:35:50;20.00;63.00
39655;DHT22;25336;59.944;11.010;2023-07-31T06:38:18;20.10;63.00
39655;DHT22;25336;59.944;11.010;2023-07-31T06:40:44;20.10;62.70
39655;DHT22;25336;59.944;11.010;2023-07-31T06:43:10;20.20;62.10
39655;DHT22;25336;59.944;11.010;2023-07-31T06:45:37;20.20;62.00
39655;DHT22;25336;59.944;11.010;2023-07-31T06:48:03;20.30;62.10
39655;DHT22;25336;59.944;11.010;2023-07-31T06:50:32;20.30;61.90
39655;DHT22;25336;59.944;11.010;2023-07-31T06:52:58;20.40;61.50
39655;DHT22;25336;59.944;11.010;2023-07-31T06:55:24;20.40;61.30
39655;DHT22;25336;59.944;11.010;2023-07-31T06:57:52;20.40;60.70
39655;DHT22;25336;59.944;11.010;2023-07-31T07:00:20;20.40;60.30
39655;DHT22;25336;59.944;11.010;2023-07-31T07:02:46;20.50;60.40
39655;DHT22;25336;59.944;11.010;2023-07-31T07:05:16;20.50;60.10
39655;DHT22;25336;59.944;11.010;2023-07-31T07:07:42;20.50;60.30
39655;DHT22;25336;59.944;11.010;2023-07-31T07:10:09;20.60;60.50
39655;DHT22;25336;59.944;11.010;2023-07-31T07:12:35;20.60;60.50
39655;DHT22;25336;59.944;11.010;2023-07-31T07:15:01;20.60;60.40
39655;DHT22;25336;59.944;11.010;2023-07-31T07:17:29;20.70;60.30
39655;DHT22;25336;59.944;11.010;2023-07-31T07:19:58;20.70;59.90
39655;DHT22;25336;59.944;11.010;2023-07-31T07:22:24;20.80;59.90
39655;DHT22;25336;59.944;11.010;2023-07-31T07:24:50;20.90;59.60
39655;DHT22;25336;59.944;11.010;2023-07-31T07:27:16;20.90;59.50
39655;DHT22;25336;59.944;11.010;2023-07-31T07:29:41;21.00;59.40
39655;DHT22;25336;59.944;11.010;2023-07-31T07:32:07;21.10;59.20
39655;DHT22;25336;59.944;11.010;2023-07-31T07:34:33;21.10;59.00
39655;DHT22;25336;59.944;11.010;2023-07-31T07:36:58;21.20;59.00
39655;DHT22;25336;59.944;11.010;2023-07-31T07:39:24;21.20;58.80
39655;DHT22;25336;59.944;11.010;2023-07-31T07:41:50;21.30;58.60
39655;DHT22;25336;59.944;11.010;2023-07-31T07:44:16;21.30;58.50
39655;DHT22;25336;59.944;11.010;2023-07-31T07:46:42;21.40;58.50
39655;DHT22;25336;59.944;11.010;2023-07-31T07:49:07;21.40;58.50
39655;DHT22;25336;59.944;11.010;2023-07-31T07:51:33;21.50;58.20
39655;DHT22;25336;59.944;11.010;2023-07-31T07:53:59;21.60;57.70
39655;DHT22;25336;59.944;11.010;2023-07-31T07:56:27;21.60;57.00
39655;DHT22;25336;59.944;11.010;2023-07-31T07:58:54;21.70;56.60
39655;DHT22;25336;59.944;11.010;2023-07-31T08:01:20;21.70;56.50
39655;DHT22;25336;59.944;11.010;2023-07-31T08:03:46;21.80;56.40
39655;DHT22;25336;59.944;11.010;2023-07-31T08:06:12;21.80;56.40
39655;DHT22;25336;59.944;11.010;2023-07-31T08:08:38;21.80;56.60
39655;DHT22;25336;59.944;11.010;2023-07-31T08:11:04;21.80;56.60
39655;DHT22;25336;59.944;11.010;2023-07-31T08:13:30;21.90;56.40
39655;DHT22;25336;59.944;11.010;2023-07-31T08:15:56;23.00;56.70
39655;DHT22;25336;59.944;11.010;2023-07-31T08:18:21;22.00;56.10
39655;DHT22;25336;59.944;11.010;2023-07-31T08:20:47;22.20;56.30
39655;DHT22;25336;59.944;11.010;2023-07-31T08:23:13;22.20;56.00
39655;DHT22;25336;59.944;11.010;2023-07-31T08:25:39;22.30;56.00
39655;DHT22;25336;59.944;11.010;2023-07-31T08:28:05;22.30;55.70
39655;DHT22;25336;59.944;11.010;2023-07-31T08:30:32;22.30;55.50
39655;DHT22;25336;59.944;11.010;2023-07-31T08:33:01;22.30;55.30
39655;DHT22;25336;59.944;11.010;2023-07-31T08:35:28;22.40;55.40
39655;DHT22;25336;59.944;11.010;2023-07-31T08:37:54;22.40;55.20
39655;DHT22;25336;59.944;11.010;2023-07-31T08:40:20;22.40;54.40
39655;DHT22;25336;59.944;11.010;2023-07-31T08:42:48;22.50;53.90
39655;DHT22;25336;59.944;11.010;2023-07-31T08:45:19;22.50;53.40
39655;DHT22;25336;59.944;11.010;2023-07-31T08:47:50;22.50;52.90
39655;DHT22;25336;59.944;11.010;2023-07-31T08:50:18;22.60;52.90
39655;DHT22;25336;59.944;11.010;2023-07-31T08:52:48;22.60;52.40
39655;DHT22;25336;59.944;11.010;2023-07-31T08:55:14;22.60;52.20
39655;DHT22;25336;59.944;11.010;2023-07-31T08:57:40;22.60;52.60
39655;DHT22;25336;59.944;11.010;2023-07-31T09:00:08;22.60;52.70
39655;DHT22;25336;59.944;11.010;2023-07-31T09:03:21;22.70;52.10
39655;DHT22;25336;59.944;11.010;2023-07-31T09:05:31;22.70;51.70
39655;DHT22;25336;59.944;11.010;2023-07-31T09:07:57;22.70;51.90
39655;DHT22;25336;59.944;11.010;2023-07-31T09:10:23;22.70;52.30
39655;DHT22;25336;59.944;11.010;2023-07-31T09:12:51;22.70;52.10
39655;DHT22;25336;59.944;11.010;2023-07-31T09:15:17;22.70;51.90
39655;DHT22;25336;59.944;11.010;2023-07-31T09:17:43;22.70;51.70
39655;DHT22;25336;59.944;11.010;2023-07-31T09:20:14;22.70;51.70
39655;DHT22;25336;59.944;11.010;2023-07-31T09:22:40;22.70;51.70
39655;DHT22;25336;59.944;11.010;2023-07-31T09:25:20;22.70;52.10
39655;DHT22;25336;59.944;11.010;2023-07-31T09:27:57;22.70;51.50
39655;DHT22;25336;59.944;11.010;2023-07-31T09:30:23;22.70;51.90
39655;DHT22;25336;59.944;11.010;2023-07-31T09:32:50;22.70;52.00
39655;DHT22;25336;59.944;11.010;2023-07-31T09:38:00;22.70;52.30
39655;DHT22;25336;59.944;11.010;2023-07-31T09:40:33;22.80;52.20
39655;DHT22;25336;59.944;11.010;2023-07-31T09:43:01;22.80;51.30
39655;DHT22;25336;59.944;11.010;2023-07-31T09:45:27;22.90;51.40
39655;DHT22;25336;59.944;11.010;2023-07-31T09:47:53;22.90;52.00
39655;DHT22;25336;59.944;11.010;2023-07-31T09:50:24;22.90;51.70
39655;DHT22;25336;59.944;11.010;2023-07-31T09:52:51;23.00;50.60
39655;DHT22;25336;59.944;11.010;2023-07-31T09:55:17;23.00;49.90
39655;DHT22;25336;59.944;11.010;2023-07-31T09:57:46;23.00;50.00
39655;DHT22;25336;59.944;11.010;2023-07-31T10:00:13;23.00;50.20
39655;DHT22;25336;59.944;11.010;2023-07-31T10:02:40;23.00;50.30
39655;DHT22;25336;59.944;11.010;2023-07-31T10:05:12;23.10;49.90
39655;DHT22;25336;59.944;11.010;2023-07-31T10:07:38;23.10;50.00
39655;DHT22;25336;59.944;11.010;2023-07-31T10:10:08;23.10;50.00
39655;DHT22;25336;59.944;11.010;2023-07-31T10:12:37;23.20;49.60
39655;DHT22;25336;59.944;11.010;2023-07-31T10:15:04;23.30;50.10
39655;DHT22;25336;59.944;11.010;2023-07-31T10:17:30;23.30;50.70
39655;DHT22;25336;59.944;11.010;2023-07-31T10:19:58;23.40;50.70
39655;DHT22;25336;59.944;11.010;2023-07-31T10:22:29;23.50;50.50
39655;DHT22;25336;59.944;11.010;2023-07-31T10:24:58;23.60;50.10
39655;DHT22;25336;59.944;11.010;2023-07-31T10:27:24;23.60;50.30
39655;DHT22;25336;59.944;11.010;2023-07-31T10:29:50;23.60;49.80
39655;DHT22;25336;59.944;11.010;2023-07-31T10:32:17;23.70;49.70
39655;DHT22;25336;59.944;11.010;2023-07-31T10:34:44;23.70;49.20
39655;DHT22;25336;59.944;11.010;2023-07-31T10:37:29;23.70;49.40
39655;DHT22;25336;59.944;11.010;2023-07-31T10:40:13;23.70;49.50
39655;DHT22;25336;59.944;11.010;2023-07-31T10:42:49;23.70;49.30
39655;DHT22;25336;59.944;11.010;2023-07-31T10:45:25;23.60;49.00
39655;DHT22;25336;59.944;11.010;2023-07-31T10:47:58;23.50;49.20
39655;DHT22;25336;59.944;11.010;2023-07-31T10:50:26;23.50;50.40
39655;DHT22;25336;59.944;11.010;2023-07-31T10:52:53;23.40;50.30
39655;DHT22;25336;59.944;11.010;2023-07-31T10:55:38;23.30;50.60
39655;DHT22;25336;59.944;11.010;2023-07-31T10:58:09;23.20;51.40
39655;DHT22;25336;59.944;11.010;2023-07-31T11:00:43;23.10;51.70
39655;DHT22;25336;59.944;11.010;2023-07-31T11:03:19;23.00;52.30
39655;DHT22;25336;59.944;11.010;2023-07-31T11:08:32;22.90;52.60
39655;DHT22;25336;59.944;11.010;2023-07-31T11:13:30;22.70;52.80
39655;DHT22;25336;59.944;11.010;2023-07-31T11:15:56;22.60;52.90
39655;DHT22;25336;59.944;11.010;2023-07-31T11:18:22;22.60;53.30
39655;DHT22;25336;59.944;11.010;2023-07-31T11:20:47;22.50;53.40
39655;DHT22;25336;59.944;11.010;2023-07-31T11:23:16;22.50;53.80
39655;DHT22;25336;59.944;11.010;2023-07-31T11:25:42;22.50;54.20
39655;DHT22;25336;59.944;11.010;2023-07-31T11:28:12;22.50;54.20
39655;DHT22;25336;59.944;11.010;2023-07-31T11:30:39;22.50;53.90
39655;DHT22;25336;59.944;11.010;2023-07-31T11:33:07;22.50;54.20
39655;DHT22;25336;59.944;11.010;2023-07-31T11:35:41;22.50;54.50
39655;DHT22;25336;59.944;11.010;2023-07-31T11:38:07;22.50;54.80
39655;DHT22;25336;59.944;11.010;2023-07-31T11:40:44;22.00;54.80
39655;DHT22;25336;59.944;11.010;2023-07-31T11:43:10;22.50;55.40
39655;DHT22;25336;59.944;11.010;2023-07-31T11:45:37;22.50;55.30
39655;DHT22;25336;59.944;11.010;2023-07-31T11:48:04;22.50;55.60
39655;DHT22;25336;59.944;11.010;2023-07-31T11:50:33;22.50;55.10
39655;DHT22;25336;59.944;11.010;2023-07-31T11:53:00;22.50;55.60
39655;DHT22;25336;59.944;11.010;2023-07-31T11:55:29;22.60;55.70
39655;DHT22;25336;59.944;11.010;2023-07-31T11:57:57;22.60;55.60
39655;DHT22;25336;59.944;11.010;2023-07-31T12:00:24;22.60;55.30
39655;DHT22;25336;59.944;11.010;2023-07-31T12:02:51;22.60;54.40
39655;DHT22;25336;59.944;11.010;2023-07-31T12:05:17;22.70;54.80
39655;DHT22;25336;59.944;11.010;2023-07-31T12:07:53;22.70;54.60
39655;DHT22;25336;59.944;11.010;2023-07-31T12:10:30;22.80;52.50
39655;DHT22;25336;59.944;11.010;2023-07-31T12:13:01;22.90;52.20
39655;DHT22;25336;59.944;11.010;2023-07-31T12:15:37;23.00;52.40
39655;DHT22;25336;59.944;11.010;2023-07-31T12:18:08;23.00;51.40
39655;DHT22;25336;59.944;11.010;2023-07-31T12:20:34;23.10;50.70
39655;DHT22;25336;59.944;11.010;2023-07-31T12:23:00;23.10;50.20
39655;DHT22;25336;59.944;11.010;2023-07-31T12:25:30;23.10;50.00
39655;DHT22;25336;59.944;11.010;2023-07-31T12:27:56;23.10;49.50
39655;DHT22;25336;59.944;11.010;2023-07-31T12:30:33;23.10;49.90
39655;DHT22;25336;59.944;11.010;2023-07-31T12:33:24;23.10;49.70
39655;DHT22;25336;59.944;11.010;2023-07-31T12:35:49;23.00;50.00
39655;DHT22;25336;59.944;11.010;2023-07-31T12:38:15;23.10;50.10
39655;DHT22;25336;59.944;11.010;2023-07-31T12:40:41;23.10;50.10
39655;DHT22;25336;59.944;11.010;2023-07-31T12:43:08;23.00;50.40
39655;DHT22;25336;59.944;11.010;2023-07-31T12:45:34;23.10;50.10
39655;DHT22;25336;59.944;11.010;2023-07-31T12:48:00;23.10;50.50
39655;DHT22;25336;59.944;11.010;2023-07-31T12:50:26;23.00;50.60
39655;DHT22;25336;59.944;11.010;2023-07-31T12:52:54;23.10;50.90
39655;DHT22;25336;59.944;11.010;2023-07-31T12:55:21;23.10;51.20
39655;DHT22;25336;59.944;11.010;2023-07-31T12:57:46;23.10;50.70
39655;DHT22;25336;59.944;11.010;2023-07-31T13:00:13;23.10;50.10
39655;DHT22;25336;59.944;11.010;2023-07-31T13:02:39;23.10;49.80
39655;DHT22;25336;59.944;11.010;2023-07-31T13:05:04;23.10;49.60
39655;DHT22;25336;59.944;11.010;2023-07-31T13:07:30;23.10;49.60
39655;DHT22;25336;59.944;11.010;2023-07-31T13:09:56;23.10;49.40
39655;DHT22;25336;59.944;11.010;2023-07-31T13:12:21;23.00;48.80
39655;DHT22;25336;59.944;11.010;2023-07-31T13:14:47;23.00;48.90
39655;DHT22;25336;59.944;11.010;2023-07-31T13:17:13;22.90;48.70
39655;DHT22;25336;59.944;11.010;2023-07-31T13:19:38;22.80;49.20
39655;DHT22;25336;59.944;11.010;2023-07-31T13:22:04;22.80;49.50
39655;DHT22;25336;59.944;11.010;2023-07-31T13:24:30;22.80;49.90
39655;DHT22;25336;59.944;11.010;2023-07-31T13:26:56;22.70;50.10
39655;DHT22;25336;59.944;11.010;2023-07-31T13:29:22;22.70;50.10
39655;DHT22;25336;59.944;11.010;2023-07-31T13:31:48;22.70;50.10
39655;DHT22;25336;59.944;11.010;2023-07-31T13:34:13;22.70;49.60
39655;DHT22;25336;59.944;11.010;2023-07-31T13:36:39;22.60;49.10
39655;DHT22;25336;59.944;11.010;2023-07-31T13:39:05;22.70;49.40
39655;DHT22;25336;59.944;11.010;2023-07-31T13:41:30;22.70;49.60
39655;DHT22;25336;59.944;11.010;2023-07-31T13:43:56;22.70;49.20
39655;DHT22;25336;59.944;11.010;2023-07-31T13:46:22;22.60;48.80
39655;DHT22;25336;59.944;11.010;2023-07-31T13:48:47;22.60;49.00
39655;DHT22;25336;59.944;11.010;2023-07-31T13:51:13;22.60;49.30
39655;DHT22;25336;59.944;11.010;2023-07-31T13:53:38;22.60;49.30
39655;DHT22;25336;59.944;11.010;2023-07-31T13:56:04;22.60;49.50
39655;DHT22;25336;59.944;11.010;2023-07-31T13:58:30;22.70;49.70
39655;DHT22;25336;59.944;11.010;2023-07-31T14:00:55;22.80;49.30
39655;DHT22;25336;59.944;11.010;2023-07-31T14:03:21;22.70;49.10
39655;DHT22;25336;59.944;11.010;2023-07-31T14:05:47;22.80;48.60
39655;DHT22;25336;59.944;11.010;2023-07-31T14:08:13;22.90;48.90
39655;DHT22;25336;59.944;11.010;2023-07-31T14:10:39;22.90;48.30
39655;DHT22;25336;59.944;11.010;2023-07-31T14:13:04;23.00;48.50
39655;DHT22;25336;59.944;11.010;2023-07-31T14:15:30;23.10;48.20
39655;DHT22;25336;59.944;11.010;2023-07-31T14:17:57;23.20;48.90
39655;DHT22;25336;59.944;11.010;2023-07-31T14:20:23;23.30;48.00
39655;DHT22;25336;59.944;11.010;2023-07-31T14:22:48;23.30;47.00
39655;DHT22;25336;59.944;11.010;2023-07-31T14:25:14;23.40;46.90
39655;DHT22;25336;59.944;11.010;2023-07-31T14:27:39;23.40;46.60
39655;DHT22;25336;59.944;11.010;2023-07-31T14:30:06;23.50;46.50
39655;DHT22;25336;59.944;11.010;2023-07-31T14:32:32;23.50;46.10
39655;DHT22;25336;59.944;11.010;2023-07-31T14:34:58;23.60;46.30
39655;DHT22;25336;59.944;11.010;2023-07-31T14:37:26;23.60;46.00
39655;DHT22;25336;59.944;11.010;2023-07-31T14:39:53;23.70;45.80
39655;DHT22;25336;59.944;11.010;2023-07-31T14:42:18;23.60;45.90
39655;DHT22;25336;59.944;11.010;2023-07-31T14:44:44;23.70;46.20
39655;DHT22;25336;59.944;11.010;2023-07-31T14:47:12;23.70;46.40
39655;DHT22;25336;59.944;11.010;2023-07-31T14:49:38;23.70;46.20
39655;DHT22;25336;59.944;11.010;2023-07-31T14:52:04;23.70;45.30
39655;DHT22;25336;59.944;11.010;2023-07-31T14:54:29;23.70;45.60
39655;DHT22;25336;59.944;11.010;2023-07-31T14:56:55;23.70;45.60
39655;DHT22;25336;59.944;11.010;2023-07-31T14:59:21;23.70;44.90
39655;DHT22;25336;59.944;11.010;2023-07-31T15:01:46;23.70;45.00
39655;DHT22;25336;59.944;11.010;2023-07-31T15:04:12;23.60;44.90
39655;DHT22;25336;59.944;11.010;2023-07-31T15:06:38;23.60;45.30
39655;DHT22;25336;59.944;11.010;2023-07-31T15:09:03;23.70;46.10
39655;DHT22;25336;59.944;11.010;2023-07-31T15:11:29;23.70;46.20
39655;DHT22;25336;59.944;11.010;2023-07-31T15:13:54;23.70;46.00
39655;DHT22;25336;59.944;11.010;2023-07-31T15:16:20;23.80;46.10
39655;DHT22;25336;59.944;11.010;2023-07-31T15:18:46;24.00;46.10
39655;DHT22;25336;59.944;11.010;2023-07-31T15:21:11;24.00;45.80
39655;DHT22;25336;59.944;11.010;2023-07-31T15:23:37;24.20;46.10
39655;DHT22;25336;59.944;11.010;2023-07-31T15:26:04;24.20;46.20